createdAt,value
2022-12-26T00:01:45.913Z,99.99
2022-12-26T00:04:53.155Z,100.00
2022-12-26T00:07:57.748Z,99.93
2022-12-26T00:11:00.278Z,100.00
2022-12-26T00:14:03.824Z,99.99
2022-12-26T00:17:06.424Z,100.00
2022-12-26T00:20:10.019Z,100.00
2022-12-26T00:23:13.925Z,100.00
2022-12-26T00:26:17.651Z,100.00
2022-12-26T00:29:20.224Z,99.83
2022-12-26T00:32:22.763Z,100.00
2022-12-26T00:35:25.295Z,100.00
2022-12-26T00:38:29.223Z,100.00
2022-12-26T00:41:32.016Z,99.97
2022-12-26T00:44:34.707Z,100.00
2022-12-26T00:47:37.343Z,100.00
2022-12-26T00:50:39.966Z,99.93
2022-12-26T00:53:43.908Z,100.00
2022-12-26T00:56:46.587Z,100.00
2022-12-26T00:59:49.098Z,100.00
2022-12-26T01:02:51.796Z,100.00
2022-12-26T01:05:54.416Z,100.00
2022-12-26T01:08:59.462Z,100.00
2022-12-26T01:12:01.993Z,100.00
2022-12-26T01:15:05.052Z,99.90
2022-12-26T01:18:07.649Z,100.00
2022-12-26T01:21:11.398Z,100.00
2022-12-26T01:24:15.347Z,100.00
2022-12-26T01:27:17.880Z,100.00
2022-12-26T01:30:20.655Z,100.00
2022-12-26T01:33:23.264Z,100.00
2022-12-26T01:36:25.832Z,100.00
2022-12-26T01:39:29.726Z,100.00
2022-12-26T01:42:37.376Z,100.00
2022-12-26T01:45:40.100Z,100.00
2022-12-26T01:48:43.141Z,100.00
2022-12-26T01:51:47.295Z,100.00
2022-12-26T01:54:51.580Z,100.00
2022-12-26T01:57:56.169Z,100.00
2022-12-26T02:00:58.820Z,100.00
2022-12-26T02:04:30.503Z,100.00
2022-12-26T02:07:33.241Z,100.00
2022-12-26T02:10:40.006Z,100.00
2022-12-26T02:13:42.602Z,100.00
2022-12-26T02:16:45.287Z,100.00
2022-12-26T02:19:50.676Z,100.00
2022-12-26T02:23:31.610Z,100.00
2022-12-26T02:27:04.697Z,100.00
2022-12-26T02:30:09.520Z,100.00
2022-12-26T02:33:33.380Z,100.00
2022-12-26T02:36:44.235Z,100.00
2022-12-26T02:39:55.805Z,100.00
2022-12-26T02:43:00.139Z,100.00
2022-12-26T02:46:38.032Z,100.00
2022-12-26T02:50:07.633Z,100.00
2022-12-26T02:53:41.917Z,100.00
2022-12-26T02:57:04.409Z,100.00
2022-12-26T03:00:26.796Z,100.00
2022-12-26T03:03:47.904Z,100.00
2022-12-26T03:07:11.909Z,100.00
2022-12-26T03:10:35.141Z,100.00
2022-12-26T03:13:37.738Z,99.66
2022-12-26T03:16:57.912Z,100.00
2022-12-26T03:20:02.518Z,99.95
2022-12-26T03:23:08.170Z,100.00
2022-12-26T03:26:31.024Z,100.00
2022-12-26T03:29:53.591Z,99.96
2022-12-26T03:32:56.565Z,99.94
2022-12-26T03:35:59.183Z,100.00
2022-12-26T03:39:08.417Z,100.00
2022-12-26T03:42:29.279Z,100.00
2022-12-26T03:46:01.475Z,99.95
2022-12-26T03:49:24.895Z,99.89
2022-12-26T03:52:46.803Z,100.00
2022-12-26T03:56:13.905Z,99.97
2022-12-26T03:59:36.030Z,100.00
2022-12-26T04:02:56.010Z,99.95
2022-12-26T04:06:16.744Z,99.78
2022-12-26T04:09:38.540Z,100.00
2022-12-26T04:13:00.152Z,100.00
2022-12-26T04:16:33.685Z,99.93
2022-12-26T04:19:58.108Z,100.00
2022-12-26T04:23:20.625Z,100.00
2022-12-26T04:26:45.019Z,99.79
2022-12-26T04:30:06.694Z,99.48
2022-12-26T04:33:29.615Z,99.88
2022-12-26T04:36:51.113Z,99.53
2022-12-26T04:40:11.871Z,99.10
2022-12-26T04:43:50.052Z,99.49
2022-12-26T04:46:55.193Z,99.09
2022-12-26T04:50:12.108Z,99.07
2022-12-26T04:53:15.644Z,98.96
2022-12-26T04:56:18.697Z,99.25
2022-12-26T04:59:21.516Z,98.79
2022-12-26T05:02:43.271Z,98.40
2022-12-26T05:06:03.949Z,98.51
2022-12-26T05:09:24.341Z,98.38
2022-12-26T05:12:26.926Z,98.19
2022-12-26T05:15:49.507Z,98.45
2022-12-26T05:19:11.461Z,98.04
2022-12-26T05:22:31.552Z,98.63
2022-12-26T05:25:52.922Z,98.11
2022-12-26T05:28:57.297Z,98.18
2022-12-26T05:32:00.915Z,98.46
2022-12-26T05:35:04.237Z,98.15
2022-12-26T05:38:06.830Z,98.10
2022-12-26T05:41:09.399Z,98.14
2022-12-26T05:44:11.979Z,97.79
2022-12-26T05:47:14.555Z,97.39
2022-12-26T05:50:18.634Z,97.81
2022-12-26T05:53:21.208Z,97.89
2022-12-26T05:56:23.870Z,98.05
2022-12-26T05:59:26.612Z,97.68
2022-12-26T06:02:30.568Z,97.85
2022-12-26T06:05:34.663Z,97.90
2022-12-26T06:08:37.278Z,97.68
2022-12-26T06:11:45.280Z,97.49
2022-12-26T06:14:51.238Z,97.22
2022-12-26T06:17:55.329Z,97.36
2022-12-26T06:20:59.200Z,97.22
2022-12-26T06:24:02.213Z,97.36
2022-12-26T06:27:04.757Z,97.27
2022-12-26T06:30:08.002Z,97.40
2022-12-26T06:33:10.577Z,97.58
2022-12-26T06:36:15.290Z,97.52
2022-12-26T06:39:17.838Z,97.38
2022-12-26T06:42:20.411Z,97.24
2022-12-26T06:45:23.027Z,97.25
2022-12-26T06:48:25.642Z,97.83
2022-12-26T06:51:29.617Z,97.44
2022-12-26T06:54:32.193Z,97.22
2022-12-26T06:57:34.729Z,97.33
2022-12-26T07:00:37.364Z,96.80
2022-12-26T07:03:44.771Z,97.37
2022-12-26T07:06:52.619Z,96.88
2022-12-26T07:09:55.198Z,97.04
2022-12-26T07:12:57.790Z,96.86
2022-12-26T07:16:00.678Z,96.90
2022-12-26T07:19:03.337Z,96.43
2022-12-26T07:22:07.199Z,97.37
2022-12-26T07:25:10.359Z,97.16
2022-12-26T07:28:12.933Z,96.76
2022-12-26T07:31:17.327Z,96.52
2022-12-26T07:34:19.914Z,96.89
2022-12-26T07:37:23.795Z,97.13
2022-12-26T07:40:26.391Z,97.17
2022-12-26T07:43:28.983Z,97.29
2022-12-26T07:46:31.629Z,97.35
2022-12-26T07:49:34.230Z,97.03
2022-12-26T07:52:38.168Z,97.52
2022-12-26T07:55:40.778Z,97.14
2022-12-26T07:58:43.327Z,96.85
2022-12-26T08:01:45.953Z,97.66
2022-12-26T08:04:48.669Z,97.15
2022-12-26T08:07:52.600Z,97.55
2022-12-26T08:10:59.778Z,97.45
2022-12-26T08:14:02.464Z,97.21
2022-12-26T08:17:05.103Z,96.90
2022-12-26T08:20:08.467Z,96.71
2022-12-26T08:23:12.347Z,96.55
2022-12-26T08:26:20.681Z,96.84
2022-12-26T08:29:23.284Z,96.48
2022-12-26T08:32:25.963Z,96.44
2022-12-26T08:35:30.099Z,96.21
2022-12-26T08:38:34.269Z,96.31
2022-12-26T08:41:36.958Z,95.97
2022-12-26T08:44:39.551Z,96.09
2022-12-26T08:47:42.095Z,95.87
2022-12-26T08:50:44.635Z,96.06
2022-12-26T08:53:49.493Z,96.25
2022-12-26T08:56:52.230Z,96.01
2022-12-26T08:59:54.856Z,95.84
2022-12-26T09:02:57.500Z,95.47
2022-12-26T09:06:05.592Z,95.04
2022-12-26T09:09:11.678Z,95.10
2022-12-26T09:12:14.318Z,94.52
2022-12-26T09:15:17.041Z,94.57
2022-12-26T09:18:19.887Z,93.85
2022-12-26T09:21:22.437Z,93.92
2022-12-26T09:24:26.352Z,93.77
2022-12-26T09:27:29.635Z,93.19
2022-12-26T09:30:32.246Z,92.96
2022-12-26T09:33:37.551Z,92.57
2022-12-26T09:36:40.279Z,92.25
2022-12-26T09:39:44.197Z,91.96
2022-12-26T09:42:50.822Z,91.46
2022-12-26T09:46:00.404Z,91.32
2022-12-26T09:49:05.439Z,91.10
2022-12-26T09:52:12.652Z,90.45
2022-12-26T09:55:31.419Z,90.33
2022-12-26T09:58:34.992Z,89.90
2022-12-26T10:01:37.691Z,89.56
2022-12-26T10:04:40.506Z,89.31
2022-12-26T10:07:45.122Z,88.75
2022-12-26T10:10:51.447Z,88.47
2022-12-26T10:13:56.692Z,88.26
2022-12-26T10:17:01.773Z,88.16
2022-12-26T10:20:14.000Z,87.07
2022-12-26T10:23:24.120Z,87.08
2022-12-26T10:26:30.810Z,87.54
2022-12-26T10:29:35.888Z,87.64
2022-12-26T10:32:40.099Z,86.93
2022-12-26T10:35:43.955Z,86.64
2022-12-26T10:38:47.118Z,84.48
2022-12-26T10:41:53.103Z,83.01
2022-12-26T10:44:55.686Z,81.43
2022-12-26T10:47:58.992Z,80.44
2022-12-26T10:51:01.533Z,79.25
2022-12-26T10:54:04.059Z,78.44
2022-12-26T10:57:08.359Z,78.43
2022-12-26T11:00:15.739Z,78.31
2022-12-26T11:03:19.118Z,78.12
2022-12-26T11:06:21.787Z,77.07
2022-12-26T11:09:27.328Z,77.18
2022-12-26T11:12:38.022Z,76.53
2022-12-26T11:15:41.336Z,76.84
2022-12-26T11:18:48.073Z,76.53
2022-12-26T11:21:50.600Z,76.35
2022-12-26T11:25:14.306Z,77.08
2022-12-26T11:28:25.421Z,76.69
2022-12-26T11:31:30.912Z,76.39
2022-12-26T11:34:35.217Z,75.62
2022-12-26T11:37:43.899Z,75.45
2022-12-26T11:41:08.639Z,73.44
2022-12-26T11:44:19.531Z,72.98
2022-12-26T11:47:23.018Z,71.58
2022-12-26T11:50:27.233Z,71.56
2022-12-26T11:53:31.503Z,70.68
2022-12-26T11:56:34.074Z,69.51
2022-12-26T11:59:37.999Z,69.43
2022-12-26T12:02:40.578Z,68.96
2022-12-26T12:05:46.817Z,69.36
2022-12-26T12:08:53.124Z,68.46
2022-12-26T12:11:57.786Z,68.75
2022-12-26T12:15:05.069Z,68.39
2022-12-26T12:18:10.942Z,68.51
2022-12-26T12:21:16.112Z,68.06
2022-12-26T12:24:27.282Z,67.48
2022-12-26T12:27:31.420Z,67.71
2022-12-26T12:30:39.668Z,67.66
2022-12-26T12:33:46.670Z,68.49
2022-12-26T12:36:55.014Z,68.37
2022-12-26T12:40:01.950Z,68.61
2022-12-26T12:43:09.060Z,68.16
2022-12-26T12:46:18.181Z,67.28
2022-12-26T12:49:33.409Z,67.54
2022-12-26T12:52:42.373Z,67.05
2022-12-26T12:55:53.148Z,65.97
2022-12-26T12:58:58.187Z,65.51
2022-12-26T13:02:11.047Z,65.59
2022-12-26T13:05:26.950Z,64.76
2022-12-26T13:08:31.661Z,64.46
2022-12-26T13:11:35.868Z,64.44
2022-12-26T13:14:39.600Z,64.03
2022-12-26T13:17:46.508Z,64.34
2022-12-26T13:20:49.901Z,64.17
2022-12-26T13:24:12.336Z,63.67
2022-12-26T13:27:16.478Z,63.79
2022-12-26T13:30:19.105Z,63.62
2022-12-26T13:33:23.151Z,62.82
2022-12-26T13:36:39.397Z,62.95
2022-12-26T13:39:42.002Z,63.20
2022-12-26T13:43:03.405Z,63.40
2022-12-26T13:46:05.993Z,63.02
2022-12-26T13:49:28.591Z,63.22
2022-12-26T13:52:34.842Z,63.61
2022-12-26T13:55:44.432Z,63.42
2022-12-26T13:58:51.020Z,63.49
2022-12-26T14:01:56.351Z,62.64
2022-12-26T14:05:02.556Z,63.01
2022-12-26T14:08:07.747Z,62.34
2022-12-26T14:11:34.386Z,63.15
2022-12-26T14:14:49.478Z,62.44
2022-12-26T14:18:01.892Z,63.06
2022-12-26T14:21:21.051Z,62.92
2022-12-26T14:24:28.565Z,63.34
2022-12-26T14:27:34.808Z,63.70
2022-12-26T14:30:42.099Z,63.61
2022-12-26T14:33:48.313Z,63.61
2022-12-26T14:36:54.254Z,63.41
2022-12-26T14:40:28.509Z,63.88
2022-12-26T14:43:37.696Z,63.67
2022-12-26T14:47:01.674Z,63.70
2022-12-26T14:50:45.869Z,63.69
2022-12-26T14:54:05.828Z,63.11
2022-12-26T14:57:36.939Z,63.01
2022-12-26T15:00:40.608Z,63.44
2022-12-26T15:03:45.655Z,63.59
2022-12-26T15:07:14.090Z,63.31
2022-12-26T15:10:51.704Z,63.49
2022-12-26T15:14:11.745Z,63.53
2022-12-26T15:17:17.985Z,63.79
2022-12-26T15:20:47.667Z,63.63
2022-12-26T15:24:19.285Z,63.37
2022-12-26T15:27:40.369Z,63.79
2022-12-26T15:31:05.918Z,64.15
2022-12-26T15:34:31.392Z,63.57
2022-12-26T15:37:57.397Z,63.99
2022-12-26T15:41:11.700Z,64.09
2022-12-26T15:44:24.770Z,64.32
2022-12-26T15:47:29.807Z,64.21
2022-12-26T15:50:33.912Z,64.40
2022-12-26T15:53:51.813Z,64.21
2022-12-26T15:57:01.205Z,64.31
2022-12-26T16:00:12.995Z,64.31
2022-12-26T16:03:24.944Z,64.34
2022-12-26T16:06:33.583Z,64.11
2022-12-26T16:09:43.409Z,64.33
2022-12-26T16:12:58.518Z,64.39
2022-12-26T16:16:02.964Z,64.45
2022-12-26T16:19:18.582Z,64.35
2022-12-26T16:22:43.710Z,64.39
2022-12-26T16:25:47.712Z,64.62
2022-12-26T16:28:50.253Z,64.61
2022-12-26T16:31:55.573Z,64.77
2022-12-26T16:34:58.685Z,64.59
2022-12-26T16:38:02.230Z,64.28
2022-12-26T16:41:06.837Z,64.23
2022-12-26T16:44:30.057Z,64.51
2022-12-26T16:47:34.578Z,64.00
2022-12-26T16:50:45.240Z,64.36
2022-12-26T16:53:47.833Z,64.64
2022-12-26T16:56:51.205Z,64.49
2022-12-26T16:59:55.015Z,64.66
2022-12-26T17:02:59.350Z,65.13
2022-12-26T17:06:05.541Z,64.65
2022-12-26T17:09:08.805Z,64.71
2022-12-26T17:12:20.981Z,64.43
2022-12-26T17:15:25.040Z,64.43
2022-12-26T17:18:39.378Z,64.34
2022-12-26T17:21:41.926Z,64.02
2022-12-26T17:24:44.740Z,64.14
2022-12-26T17:27:47.971Z,64.03
2022-12-26T17:30:53.169Z,63.75
2022-12-26T17:33:57.730Z,63.34
2022-12-26T17:37:19.863Z,62.50
2022-12-26T17:40:24.995Z,62.62
2022-12-26T17:43:31.232Z,62.14
2022-12-26T17:46:33.849Z,61.94
2022-12-26T17:49:37.811Z,61.85
2022-12-26T17:52:40.447Z,61.44
2022-12-26T17:55:43.000Z,61.53
2022-12-26T17:58:45.599Z,60.83
2022-12-26T18:01:48.312Z,61.02
2022-12-26T18:04:52.347Z,60.86
2022-12-26T18:07:54.885Z,60.73
2022-12-26T18:10:57.621Z,60.48
2022-12-26T18:14:00.225Z,60.56
2022-12-26T18:17:02.807Z,60.49
2022-12-26T18:20:07.768Z,60.07
2022-12-26T18:23:11.025Z,60.03
2022-12-26T18:26:17.495Z,60.36
2022-12-26T18:29:21.599Z,60.34
2022-12-26T18:32:25.302Z,60.31
2022-12-26T18:35:29.187Z,60.14
2022-12-26T18:38:31.740Z,60.14
2022-12-26T18:41:34.324Z,59.98
2022-12-26T18:44:36.855Z,60.05
2022-12-26T18:47:39.475Z,60.24
2022-12-26T18:50:43.778Z,59.72
2022-12-26T18:53:46.704Z,60.14
2022-12-26T18:56:49.280Z,60.09
2022-12-26T18:59:51.976Z,60.18
2022-12-26T19:02:55.497Z,60.32
2022-12-26T19:05:59.445Z,60.74
2022-12-26T19:09:01.995Z,60.73
2022-12-26T19:12:04.842Z,61.25
2022-12-26T19:15:08.380Z,61.03
2022-12-26T19:18:10.991Z,61.28
2022-12-26T19:21:15.291Z,61.58
2022-12-26T19:24:17.840Z,61.47
2022-12-26T19:27:20.467Z,61.83
2022-12-26T19:30:23.261Z,61.63
2022-12-26T19:33:25.812Z,61.81
2022-12-26T19:36:29.751Z,62.05
2022-12-26T19:39:32.368Z,61.68
2022-12-26T19:42:37.176Z,61.75
2022-12-26T19:45:39.769Z,61.88
2022-12-26T19:48:42.382Z,62.08
2022-12-26T19:51:47.080Z,62.35
2022-12-26T19:54:49.659Z,62.84
2022-12-26T19:57:54.749Z,62.93
2022-12-26T20:00:57.428Z,62.95
2022-12-26T20:04:01.686Z,63.13
2022-12-26T20:07:05.607Z,63.33
2022-12-26T20:10:08.393Z,63.63
2022-12-26T20:13:10.961Z,63.89
2022-12-26T20:16:37.409Z,64.09
2022-12-26T20:19:37.123Z,63.99
2022-12-26T20:22:41.101Z,64.22
2022-12-26T20:25:43.645Z,64.39
2022-12-26T20:28:46.300Z,64.91
2022-12-26T20:31:49.349Z,64.86
2022-12-26T20:34:51.944Z,64.95
2022-12-26T20:37:55.917Z,65.18
2022-12-26T20:40:58.483Z,65.40
2022-12-26T20:44:01.018Z,65.28
2022-12-26T20:47:04.261Z,65.76
2022-12-26T20:50:08.023Z,65.76
2022-12-26T20:53:11.963Z,65.80
2022-12-26T20:56:14.549Z,65.92
2022-12-26T20:59:17.256Z,66.11
2022-12-26T21:02:20.025Z,66.38
2022-12-26T21:05:22.667Z,66.56
2022-12-26T21:08:26.640Z,66.49
2022-12-26T21:11:30.470Z,66.50
2022-12-26T21:14:32.991Z,66.66
2022-12-26T21:17:36.836Z,67.04
2022-12-26T21:20:39.436Z,67.19
2022-12-26T21:23:43.410Z,67.12
2022-12-26T21:26:46.163Z,67.02
2022-12-26T21:29:48.888Z,67.52
2022-12-26T21:32:51.821Z,67.53
2022-12-26T21:35:54.827Z,67.67
2022-12-26T21:38:58.764Z,67.55
2022-12-26T21:42:01.506Z,67.18
2022-12-26T21:45:04.242Z,67.30
2022-12-26T21:48:07.411Z,67.22
2022-12-26T21:51:10.324Z,67.17
2022-12-26T21:54:31.695Z,66.90
2022-12-26T21:57:35.024Z,67.13
2022-12-26T22:00:37.635Z,67.54
2022-12-26T22:03:57.692Z,67.32
2022-12-26T22:07:00.235Z,67.60
2022-12-26T22:10:04.480Z,67.41
2022-12-26T22:13:06.248Z,68.05
2022-12-26T22:16:10.515Z,67.87
2022-12-26T22:19:13.169Z,67.96
2022-12-26T22:22:15.770Z,68.36
2022-12-26T22:25:19.951Z,68.47
2022-12-26T22:28:23.567Z,68.26
2022-12-26T22:31:28.130Z,68.55
2022-12-26T22:34:30.749Z,68.82
2022-12-26T22:37:33.311Z,68.35
2022-12-26T22:40:37.231Z,68.78
2022-12-26T22:43:40.607Z,68.99
2022-12-26T22:46:43.300Z,68.87
2022-12-26T22:49:45.927Z,69.17
2022-12-26T22:52:48.531Z,69.40
2022-12-26T22:55:57.916Z,69.46
2022-12-26T22:59:00.940Z,69.63
2022-12-26T23:02:03.621Z,69.69
2022-12-26T23:05:07.359Z,69.86
2022-12-26T23:08:11.935Z,69.90
2022-12-26T23:11:16.319Z,69.97
2022-12-26T23:14:20.271Z,69.84
2022-12-26T23:17:36.756Z,70.56
2022-12-26T23:20:56.776Z,70.60
2022-12-26T23:23:59.319Z,70.47
2022-12-26T23:27:19.229Z,71.07
2022-12-26T23:30:23.088Z,70.59
2022-12-26T23:33:25.844Z,70.60
2022-12-26T23:36:28.438Z,70.88
2022-12-26T23:39:31.082Z,70.99
2022-12-26T23:42:35.033Z,71.10
2022-12-26T23:45:37.620Z,71.57
2022-12-26T23:48:40.166Z,71.55
2022-12-26T23:51:42.827Z,71.19
2022-12-26T23:54:45.392Z,71.54
2022-12-26T23:57:49.321Z,72.15
